sensor_id;sensor_type;location;lat;lon;timestamp;P1;durP1;ratioP1;P2;durP2;ratioP2
85894;SDS011;76441;49.954;8.842;2024-03-07T00:02:18;48.55;;;22.83;;
85894;SDS011;76441;49.954;8.842;2024-03-07T00:04:44;51.63;;;24.65;;
85894;SDS011;76441;49.954;8.842;2024-03-07T00:07:09;48.53;;;23.80;;
85894;SDS011;76441;49.954;8.842;2024-03-07T00:09:35;48.67;;;24.67;;
85894;SDS011;76441;49.954;8.842;2024-03-07T00:12:00;52.38;;;24.00;;
85894;SDS011;76441;49.954;8.842;2024-03-07T00:14:26;49.08;;;24.80;;
85894;SDS011;76441;49.954;8.842;2024-03-07T00:16:52;49.38;;;23.48;;
85894;SDS011;76441;49.954;8.842;2024-03-07T00:19:19;45.38;;;23.88;;
85894;SDS011;76441;49.954;8.842;2024-03-07T00:21:44;49.90;;;22.80;;
85894;SDS011;76441;49.954;8.842;2024-03-07T00:24:10;48.90;;;24.73;;
85894;SDS011;76441;49.954;8.842;2024-03-07T00:26:35;52.50;;;25.08;;
85894;SDS011;76441;49.954;8.842;2024-03-07T00:29:01;50.95;;;25.13;;
85894;SDS011;76441;49.954;8.842;2024-03-07T00:31:27;47.22;;;23.50;;
85894;SDS011;76441;49.954;8.842;2024-03-07T00:33:54;52.03;;;25.02;;
85894;SDS011;76441;49.954;8.842;2024-03-07T00:36:21;50.28;;;25.50;;
85894;SDS011;76441;49.954;8.842;2024-03-07T00:38:46;50.40;;;23.90;;
85894;SDS011;76441;49.954;8.842;2024-03-07T00:41:12;48.25;;;22.67;;
85894;SDS011;76441;49.954;8.842;2024-03-07T00:43:37;49.63;;;24.05;;
85894;SDS011;76441;49.954;8.842;2024-03-07T00:46:03;51.27;;;25.87;;
85894;SDS011;76441;49.954;8.842;2024-03-07T00:48:28;52.47;;;24.23;;
85894;SDS011;76441;49.954;8.842;2024-03-07T00:50:54;50.80;;;24.25;;
85894;SDS011;76441;49.954;8.842;2024-03-07T00:53:20;50.67;;;25.20;;
85894;SDS011;76441;49.954;8.842;2024-03-07T00:55:45;48.17;;;23.15;;
85894;SDS011;76441;49.954;8.842;2024-03-07T00:58:10;52.20;;;23.53;;
85894;SDS011;76441;49.954;8.842;2024-03-07T01:00:37;48.95;;;23.15;;
85894;SDS011;76441;49.954;8.842;2024-03-07T01:03:03;51.40;;;25.27;;
85894;SDS011;76441;49.954;8.842;2024-03-07T01:05:28;51.30;;;24.13;;
85894;SDS011;76441;49.954;8.842;2024-03-07T01:07:53;48.33;;;24.50;;
85894;SDS011;76441;49.954;8.842;2024-03-07T01:10:20;59.13;;;28.00;;
85894;SDS011;76441;49.954;8.842;2024-03-07T01:12:46;52.42;;;25.52;;
85894;SDS011;76441;49.954;8.842;2024-03-07T01:15:11;49.25;;;23.85;;
85894;SDS011;76441;49.954;8.842;2024-03-07T01:17:37;56.60;;;27.13;;
85894;SDS011;76441;49.954;8.842;2024-03-07T01:20:02;52.28;;;25.10;;
85894;SDS011;76441;49.954;8.842;2024-03-07T01:22:28;52.75;;;25.08;;
85894;SDS011;76441;49.954;8.842;2024-03-07T01:24:53;55.73;;;26.70;;
85894;SDS011;76441;49.954;8.842;2024-03-07T01:27:18;54.22;;;24.58;;
85894;SDS011;76441;49.954;8.842;2024-03-07T01:29:44;54.67;;;25.92;;
85894;SDS011;76441;49.954;8.842;2024-03-07T01:32:09;50.08;;;24.70;;
85894;SDS011;76441;49.954;8.842;2024-03-07T01:34:35;50.72;;;23.30;;
85894;SDS011;76441;49.954;8.842;2024-03-07T01:37:01;51.10;;;23.52;;
85894;SDS011;76441;49.954;8.842;2024-03-07T01:39:26;54.58;;;25.92;;
85894;SDS011;76441;49.954;8.842;2024-03-07T01:41:52;54.17;;;24.85;;
85894;SDS011;76441;49.954;8.842;2024-03-07T01:44:17;56.85;;;25.73;;
85894;SDS011;76441;49.954;8.842;2024-03-07T01:46:42;53.47;;;25.50;;
85894;SDS011;76441;49.954;8.842;2024-03-07T01:49:08;56.17;;;26.10;;
85894;SDS011;76441;49.954;8.842;2024-03-07T01:51:35;53.20;;;26.73;;
85894;SDS011;76441;49.954;8.842;2024-03-07T01:54:02;55.63;;;26.08;;
85894;SDS011;76441;49.954;8.842;2024-03-07T01:56:28;56.33;;;24.98;;
85894;SDS011;76441;49.954;8.842;2024-03-07T01:58:54;51.85;;;26.40;;
85894;SDS011;76441;49.954;8.842;2024-03-07T02:01:20;56.97;;;26.13;;
85894;SDS011;76441;49.954;8.842;2024-03-07T02:03:46;51.25;;;23.60;;
85894;SDS011;76441;49.954;8.842;2024-03-07T02:06:11;49.42;;;23.80;;
85894;SDS011;76441;49.954;8.842;2024-03-07T02:08:37;56.95;;;26.55;;
85894;SDS011;76441;49.954;8.842;2024-03-07T02:11:02;63.38;;;27.92;;
85894;SDS011;76441;49.954;8.842;2024-03-07T02:13:27;53.78;;;24.73;;
85894;SDS011;76441;49.954;8.842;2024-03-07T02:15:53;58.55;;;23.77;;
85894;SDS011;76441;49.954;8.842;2024-03-07T02:18:19;57.35;;;25.45;;
85894;SDS011;76441;49.954;8.842;2024-03-07T02:20:45;56.17;;;26.60;;
85894;SDS011;76441;49.954;8.842;2024-03-07T02:23:11;53.63;;;26.02;;
85894;SDS011;76441;49.954;8.842;2024-03-07T02:25:36;57.92;;;25.33;;
85894;SDS011;76441;49.954;8.842;2024-03-07T02:28:03;49.50;;;22.80;;
85894;SDS011;76441;49.954;8.842;2024-03-07T02:30:29;48.08;;;23.02;;
85894;SDS011;76441;49.954;8.842;2024-03-07T02:32:57;45.80;;;22.13;;
85894;SDS011;76441;49.954;8.842;2024-03-07T02:35:24;49.22;;;22.90;;
85894;SDS011;76441;49.954;8.842;2024-03-07T02:37:50;48.38;;;24.02;;
85894;SDS011;76441;49.954;8.842;2024-03-07T02:40:15;56.35;;;24.55;;
85894;SDS011;76441;49.954;8.842;2024-03-07T02:42:42;50.17;;;22.63;;
85894;SDS011;76441;49.954;8.842;2024-03-07T02:45:08;53.85;;;23.65;;
85894;SDS011;76441;49.954;8.842;2024-03-07T02:47:35;51.03;;;24.58;;
85894;SDS011;76441;49.954;8.842;2024-03-07T02:50:01;53.45;;;24.35;;
85894;SDS011;76441;49.954;8.842;2024-03-07T02:52:26;53.25;;;23.05;;
85894;SDS011;76441;49.954;8.842;2024-03-07T02:54:51;52.30;;;25.17;;
85894;SDS011;76441;49.954;8.842;2024-03-07T02:57:17;55.63;;;25.53;;
85894;SDS011;76441;49.954;8.842;2024-03-07T02:59:42;52.33;;;24.48;;
85894;SDS011;76441;49.954;8.842;2024-03-07T03:02:07;52.47;;;25.67;;
85894;SDS011;76441;49.954;8.842;2024-03-07T03:04:33;55.05;;;23.38;;
85894;SDS011;76441;49.954;8.842;2024-03-07T03:06:58;55.97;;;23.57;;
85894;SDS011;76441;49.954;8.842;2024-03-07T03:09:23;53.05;;;24.35;;
85894;SDS011;76441;49.954;8.842;2024-03-07T03:11:49;50.37;;;22.77;;
85894;SDS011;76441;49.954;8.842;2024-03-07T03:14:14;50.40;;;22.25;;
85894;SDS011;76441;49.954;8.842;2024-03-07T03:16:43;51.80;;;22.33;;
85894;SDS011;76441;49.954;8.842;2024-03-07T03:19:09;53.25;;;23.50;;
85894;SDS011;76441;49.954;8.842;2024-03-07T03:21:35;48.33;;;22.45;;
85894;SDS011;76441;49.954;8.842;2024-03-07T03:24:01;49.35;;;23.38;;
85894;SDS011;76441;49.954;8.842;2024-03-07T03:26:27;54.45;;;24.83;;
85894;SDS011;76441;49.954;8.842;2024-03-07T03:28:53;49.03;;;25.30;;
85894;SDS011;76441;49.954;8.842;2024-03-07T03:31:18;49.97;;;24.95;;
85894;SDS011;76441;49.954;8.842;2024-03-07T03:33:44;50.13;;;22.58;;
85894;SDS011;76441;49.954;8.842;2024-03-07T03:36:10;52.55;;;23.70;;
85894;SDS011;76441;49.954;8.842;2024-03-07T03:38:35;49.05;;;22.88;;
85894;SDS011;76441;49.954;8.842;2024-03-07T03:41:01;51.05;;;24.38;;
85894;SDS011;76441;49.954;8.842;2024-03-07T03:43:26;51.00;;;24.25;;
85894;SDS011;76441;49.954;8.842;2024-03-07T03:45:52;48.28;;;22.08;;
85894;SDS011;76441;49.954;8.842;2024-03-07T03:48:17;52.35;;;22.80;;
85894;SDS011;76441;49.954;8.842;2024-03-07T03:50:42;49.20;;;23.00;;
85894;SDS011;76441;49.954;8.842;2024-03-07T03:53:08;51.90;;;22.55;;
85894;SDS011;76441;49.954;8.842;2024-03-07T03:55:33;47.67;;;22.00;;
85894;SDS011;76441;49.954;8.842;2024-03-07T03:57:59;50.30;;;22.65;;
85894;SDS011;76441;49.954;8.842;2024-03-07T04:00:24;50.33;;;22.48;;
85894;SDS011;76441;49.954;8.842;2024-03-07T04:02:50;51.42;;;24.90;;
85894;SDS011;76441;49.954;8.842;2024-03-07T04:05:16;53.50;;;23.52;;
85894;SDS011;76441;49.954;8.842;2024-03-07T04:07:44;52.53;;;23.05;;
85894;SDS011;76441;49.954;8.842;2024-03-07T04:10:10;49.38;;;23.90;;
85894;SDS011;76441;49.954;8.842;2024-03-07T04:12:36;47.78;;;22.77;;
85894;SDS011;76441;49.954;8.842;2024-03-07T04:15:05;57.15;;;25.40;;
85894;SDS011;76441;49.954;8.842;2024-03-07T04:17:32;52.80;;;24.77;;
85894;SDS011;76441;49.954;8.842;2024-03-07T04:19:59;53.08;;;22.17;;
85894;SDS011;76441;49.954;8.842;2024-03-07T04:22:25;49.58;;;24.08;;
85894;SDS011;76441;49.954;8.842;2024-03-07T04:24:51;57.67;;;24.90;;
85894;SDS011;76441;49.954;8.842;2024-03-07T04:27:20;50.50;;;24.63;;
85894;SDS011;76441;49.954;8.842;2024-03-07T04:29:46;49.10;;;22.17;;
85894;SDS011;76441;49.954;8.842;2024-03-07T04:32:14;57.22;;;23.75;;
85894;SDS011;76441;49.954;8.842;2024-03-07T04:34:40;54.20;;;23.65;;
85894;SDS011;76441;49.954;8.842;2024-03-07T04:37:05;56.33;;;24.43;;
85894;SDS011;76441;49.954;8.842;2024-03-07T04:39:31;56.10;;;24.27;;
85894;SDS011;76441;49.954;8.842;2024-03-07T04:44:28;49.40;;;20.60;;
85894;SDS011;76441;49.954;8.842;2024-03-07T04:46:53;56.38;;;24.45;;
85894;SDS011;76441;49.954;8.842;2024-03-07T04:49:22;52.42;;;22.40;;
85894;SDS011;76441;49.954;8.842;2024-03-07T04:51:49;51.25;;;22.85;;
85894;SDS011;76441;49.954;8.842;2024-03-07T04:54:18;52.92;;;23.63;;
85894;SDS011;76441;49.954;8.842;2024-03-07T04:56:44;50.53;;;22.00;;
85894;SDS011;76441;49.954;8.842;2024-03-07T04:59:13;48.25;;;23.27;;
85894;SDS011;76441;49.954;8.842;2024-03-07T05:01:39;53.03;;;23.88;;
85894;SDS011;76441;49.954;8.842;2024-03-07T05:04:08;46.25;;;21.58;;
85894;SDS011;76441;49.954;8.842;2024-03-07T05:06:34;51.13;;;22.75;;
85894;SDS011;76441;49.954;8.842;2024-03-07T05:09:03;49.15;;;23.52;;
85894;SDS011;76441;49.954;8.842;2024-03-07T05:11:33;58.40;;;25.77;;
85894;SDS011;76441;49.954;8.842;2024-03-07T05:13:59;56.55;;;26.42;;
85894;SDS011;76441;49.954;8.842;2024-03-07T05:16:25;52.17;;;24.13;;
85894;SDS011;76441;49.954;8.842;2024-03-07T05:18:51;49.40;;;23.17;;
85894;SDS011;76441;49.954;8.842;2024-03-07T05:21:17;58.63;;;25.10;;
85894;SDS011;76441;49.954;8.842;2024-03-07T05:23:57;52.40;;;23.05;;
85894;SDS011;76441;49.954;8.842;2024-03-07T05:26:22;53.70;;;23.85;;
85894;SDS011;76441;49.954;8.842;2024-03-07T05:28:48;58.33;;;24.58;;
85894;SDS011;76441;49.954;8.842;2024-03-07T05:31:13;55.60;;;24.85;;
85894;SDS011;76441;49.954;8.842;2024-03-07T05:33:39;55.92;;;23.45;;
85894;SDS011;76441;49.954;8.842;2024-03-07T05:36:05;51.70;;;25.10;;
85894;SDS011;76441;49.954;8.842;2024-03-07T05:38:44;56.55;;;23.98;;
85894;SDS011;76441;49.954;8.842;2024-03-07T05:41:09;52.20;;;23.63;;
85894;SDS011;76441;49.954;8.842;2024-03-07T05:43:37;56.85;;;24.85;;
85894;SDS011;76441;49.954;8.842;2024-03-07T05:46:03;58.92;;;25.38;;
85894;SDS011;76441;49.954;8.842;2024-03-07T05:48:30;55.00;;;24.80;;
85894;SDS011;76441;49.954;8.842;2024-03-07T05:50:55;61.90;;;24.00;;
85894;SDS011;76441;49.954;8.842;2024-03-07T05:53:29;53.70;;;24.13;;
85894;SDS011;76441;49.954;8.842;2024-03-07T05:56:07;61.42;;;25.67;;
85894;SDS011;76441;49.954;8.842;2024-03-07T05:58:49;55.92;;;25.25;;
85894;SDS011;76441;49.954;8.842;2024-03-07T06:01:19;50.42;;;23.35;;
85894;SDS011;76441;49.954;8.842;2024-03-07T06:03:56;55.15;;;23.08;;
85894;SDS011;76441;49.954;8.842;2024-03-07T06:06:23;52.22;;;22.88;;
85894;SDS011;76441;49.954;8.842;2024-03-07T06:08:53;54.58;;;25.20;;
85894;SDS011;76441;49.954;8.842;2024-03-07T06:11:21;54.17;;;23.13;;
85894;SDS011;76441;49.954;8.842;2024-03-07T06:13:57;59.95;;;23.70;;
85894;SDS011;76441;49.954;8.842;2024-03-07T06:16:30;52.67;;;22.90;;
85894;SDS011;76441;49.954;8.842;2024-03-07T06:18:58;49.63;;;25.52;;
85894;SDS011;76441;49.954;8.842;2024-03-07T06:21:24;51.67;;;23.90;;
85894;SDS011;76441;49.954;8.842;2024-03-07T06:23:50;49.95;;;23.08;;
85894;SDS011;76441;49.954;8.842;2024-03-07T06:26:24;45.28;;;22.40;;
85894;SDS011;76441;49.954;8.842;2024-03-07T06:29:02;51.30;;;24.30;;
85894;SDS011;76441;49.954;8.842;2024-03-07T06:33:55;52.60;;;21.80;;
85894;SDS011;76441;49.954;8.842;2024-03-07T06:36:20;47.40;;;22.00;;
85894;SDS011;76441;49.954;8.842;2024-03-07T06:38:45;50.63;;;22.47;;
85894;SDS011;76441;49.954;8.842;2024-03-07T06:41:10;49.00;;;22.43;;
85894;SDS011;76441;49.954;8.842;2024-03-07T06:43:36;48.47;;;21.77;;
85894;SDS011;76441;49.954;8.842;2024-03-07T06:46:01;53.40;;;24.00;;
85894;SDS011;76441;49.954;8.842;2024-03-07T06:48:27;54.90;;;22.98;;
85894;SDS011;76441;49.954;8.842;2024-03-07T06:50:52;50.33;;;22.95;;
85894;SDS011;76441;49.954;8.842;2024-03-07T06:53:18;43.37;;;21.03;;
85894;SDS011;76441;49.954;8.842;2024-03-07T06:55:43;50.97;;;25.77;;
85894;SDS011;76441;49.954;8.842;2024-03-07T06:58:08;57.63;;;25.27;;
85894;SDS011;76441;49.954;8.842;2024-03-07T07:00:35;74.50;;;32.85;;
85894;SDS011;76441;49.954;8.842;2024-03-07T07:03:01;151.40;;;60.03;;
85894;SDS011;76441;49.954;8.842;2024-03-07T07:05:28;137.25;;;55.95;;
85894;SDS011;76441;49.954;8.842;2024-03-07T07:07:55;96.65;;;40.58;;
85894;SDS011;76441;49.954;8.842;2024-03-07T07:10:20;64.88;;;31.08;;
85894;SDS011;76441;49.954;8.842;2024-03-07T07:12:48;56.25;;;26.90;;
85894;SDS011;76441;49.954;8.842;2024-03-07T07:15:15;53.40;;;27.08;;
85894;SDS011;76441;49.954;8.842;2024-03-07T07:17:43;46.60;;;22.73;;
85894;SDS011;76441;49.954;8.842;2024-03-07T07:20:11;47.13;;;24.92;;
85894;SDS011;76441;49.954;8.842;2024-03-07T07:22:39;41.72;;;22.67;;
85894;SDS011;76441;49.954;8.842;2024-03-07T07:25:05;39.58;;;20.60;;
85894;SDS011;76441;49.954;8.842;2024-03-07T07:27:37;39.38;;;19.92;;
85894;SDS011;76441;49.954;8.842;2024-03-07T07:30:03;42.35;;;19.15;;
85894;SDS011;76441;49.954;8.842;2024-03-07T07:32:29;36.13;;;18.75;;
85894;SDS011;76441;49.954;8.842;2024-03-07T07:34:57;33.22;;;17.08;;
85894;SDS011;76441;49.954;8.842;2024-03-07T07:37:22;32.97;;;17.87;;
85894;SDS011;76441;49.954;8.842;2024-03-07T07:39:48;34.63;;;18.33;;
85894;SDS011;76441;49.954;8.842;2024-03-07T07:42:13;34.95;;;16.33;;
85894;SDS011;76441;49.954;8.842;2024-03-07T07:44:39;35.80;;;15.88;;
85894;SDS011;76441;49.954;8.842;2024-03-07T07:47:05;31.77;;;16.38;;
85894;SDS011;76441;49.954;8.842;2024-03-07T07:49:30;29.55;;;15.73;;
85894;SDS011;76441;49.954;8.842;2024-03-07T07:51:56;29.73;;;16.08;;
85894;SDS011;76441;49.954;8.842;2024-03-07T07:54:21;24.52;;;14.73;;
85894;SDS011;76441;49.954;8.842;2024-03-07T07:56:47;26.60;;;14.00;;
85894;SDS011;76441;49.954;8.842;2024-03-07T07:59:13;27.83;;;13.63;;
85894;SDS011;76441;49.954;8.842;2024-03-07T08:01:38;24.92;;;14.38;;
85894;SDS011;76441;49.954;8.842;2024-03-07T08:04:03;24.20;;;13.63;;
85894;SDS011;76441;49.954;8.842;2024-03-07T08:06:29;25.80;;;13.82;;
85894;SDS011;76441;49.954;8.842;2024-03-07T08:08:55;24.33;;;13.48;;
85894;SDS011;76441;49.954;8.842;2024-03-07T08:11:20;23.50;;;12.93;;
85894;SDS011;76441;49.954;8.842;2024-03-07T08:13:45;21.90;;;12.50;;
85894;SDS011;76441;49.954;8.842;2024-03-07T08:16:14;23.02;;;12.05;;
85894;SDS011;76441;49.954;8.842;2024-03-07T08:18:40;20.58;;;11.57;;
85894;SDS011;76441;49.954;8.842;2024-03-07T08:21:06;23.33;;;11.55;;
85894;SDS011;76441;49.954;8.842;2024-03-07T08:23:32;25.92;;;13.40;;
85894;SDS011;76441;49.954;8.842;2024-03-07T08:25:58;21.27;;;11.83;;
85894;SDS011;76441;49.954;8.842;2024-03-07T08:28:23;20.85;;;12.10;;
85894;SDS011;76441;49.954;8.842;2024-03-07T08:30:49;21.77;;;11.93;;
85894;SDS011;76441;49.954;8.842;2024-03-07T08:33:14;23.02;;;12.48;;
85894;SDS011;76441;49.954;8.842;2024-03-07T08:35:40;23.20;;;12.33;;
85894;SDS011;76441;49.954;8.842;2024-03-07T08:38:05;22.63;;;12.93;;
85894;SDS011;76441;49.954;8.842;2024-03-07T08:40:30;19.40;;;11.83;;
85894;SDS011;76441;49.954;8.842;2024-03-07T08:42:57;23.05;;;12.15;;
85894;SDS011;76441;49.954;8.842;2024-03-07T08:45:23;23.52;;;12.25;;
85894;SDS011;76441;49.954;8.842;2024-03-07T08:47:50;20.95;;;11.40;;
85894;SDS011;76441;49.954;8.842;2024-03-07T08:50:16;19.77;;;11.50;;
85894;SDS011;76441;49.954;8.842;2024-03-07T08:52:45;20.80;;;12.13;;
85894;SDS011;76441;49.954;8.842;2024-03-07T08:55:13;25.20;;;13.98;;
85894;SDS011;76441;49.954;8.842;2024-03-07T08:57:40;22.95;;;12.50;;
85894;SDS011;76441;49.954;8.842;2024-03-07T09:00:06;22.42;;;12.18;;
85894;SDS011;76441;49.954;8.842;2024-03-07T09:02:33;22.25;;;12.30;;
85894;SDS011;76441;49.954;8.842;2024-03-07T09:04:59;25.25;;;12.45;;
85894;SDS011;76441;49.954;8.842;2024-03-07T09:07:25;22.92;;;12.45;;
85894;SDS011;76441;49.954;8.842;2024-03-07T09:09:50;22.50;;;12.60;;
85894;SDS011;76441;49.954;8.842;2024-03-07T09:12:16;26.50;;;12.53;;
85894;SDS011;76441;49.954;8.842;2024-03-07T09:14:41;20.20;;;10.77;;
85894;SDS011;76441;49.954;8.842;2024-03-07T09:17:06;24.93;;;13.20;;
85894;SDS011;76441;49.954;8.842;2024-03-07T09:19:31;26.52;;;13.13;;
85894;SDS011;76441;49.954;8.842;2024-03-07T09:21:57;21.67;;;11.77;;
85894;SDS011;76441;49.954;8.842;2024-03-07T09:24:22;19.80;;;11.85;;
85894;SDS011;76441;49.954;8.842;2024-03-07T09:26:50;20.02;;;11.55;;
85894;SDS011;76441;49.954;8.842;2024-03-07T09:29:17;21.70;;;11.80;;
85894;SDS011;76441;49.954;8.842;2024-03-07T09:31:46;23.42;;;13.05;;
85894;SDS011;76441;49.954;8.842;2024-03-07T09:34:14;24.38;;;13.27;;
85894;SDS011;76441;49.954;8.842;2024-03-07T09:36:39;22.17;;;11.88;;
85894;SDS011;76441;49.954;8.842;2024-03-07T09:39:06;24.65;;;13.20;;
85894;SDS011;76441;49.954;8.842;2024-03-07T09:41:33;25.00;;;12.63;;
85894;SDS011;76441;49.954;8.842;2024-03-07T09:43:58;24.42;;;12.82;;
85894;SDS011;76441;49.954;8.842;2024-03-07T09:46:26;19.77;;;11.45;;
85894;SDS011;76441;49.954;8.842;2024-03-07T09:48:52;19.38;;;10.70;;
85894;SDS011;76441;49.954;8.842;2024-03-07T09:51:19;22.40;;;12.32;;
85894;SDS011;76441;49.954;8.842;2024-03-07T09:53:46;25.85;;;13.00;;
85894;SDS011;76441;49.954;8.842;2024-03-07T09:56:14;22.63;;;11.85;;
85894;SDS011;76441;49.954;8.842;2024-03-07T09:58:45;28.98;;;13.52;;
85894;SDS011;76441;49.954;8.842;2024-03-07T10:01:14;25.38;;;13.85;;
85894;SDS011;76441;49.954;8.842;2024-03-07T10:03:40;23.05;;;13.60;;
85894;SDS011;76441;49.954;8.842;2024-03-07T10:06:09;26.30;;;13.68;;
85894;SDS011;76441;49.954;8.842;2024-03-07T10:08:35;23.30;;;13.15;;
85894;SDS011;76441;49.954;8.842;2024-03-07T10:11:01;24.52;;;13.75;;
85894;SDS011;76441;49.954;8.842;2024-03-07T10:13:26;23.10;;;12.13;;
85894;SDS011;76441;49.954;8.842;2024-03-07T10:15:51;29.67;;;15.30;;
85894;SDS011;76441;49.954;8.842;2024-03-07T10:18:18;28.35;;;13.25;;
85894;SDS011;76441;49.954;8.842;2024-03-07T10:20:47;23.67;;;12.50;;
85894;SDS011;76441;49.954;8.842;2024-03-07T10:23:17;23.38;;;12.30;;
85894;SDS011;76441;49.954;8.842;2024-03-07T10:25:46;23.98;;;13.07;;
85894;SDS011;76441;49.954;8.842;2024-03-07T10:28:11;24.92;;;12.98;;
85894;SDS011;76441;49.954;8.842;2024-03-07T10:30:43;23.83;;;12.32;;
85894;SDS011;76441;49.954;8.842;2024-03-07T10:33:09;23.98;;;12.65;;
85894;SDS011;76441;49.954;8.842;2024-03-07T10:38:03;27.92;;;13.57;;
85894;SDS011;76441;49.954;8.842;2024-03-07T10:40:31;23.50;;;12.48;;
85894;SDS011;76441;49.954;8.842;2024-03-07T10:42:58;22.15;;;12.77;;
85894;SDS011;76441;49.954;8.842;2024-03-07T10:45:28;22.48;;;12.65;;
85894;SDS011;76441;49.954;8.842;2024-03-07T10:47:55;22.60;;;13.43;;
85894;SDS011;76441;49.954;8.842;2024-03-07T10:50:30;22.10;;;12.77;;
85894;SDS011;76441;49.954;8.842;2024-03-07T10:53:31;24.45;;;13.95;;
85894;SDS011;76441;49.954;8.842;2024-03-07T11:01:44;24.75;;;15.00;;
85894;SDS011;76441;49.954;8.842;2024-03-07T11:04:19;22.25;;;12.98;;
85894;SDS011;76441;49.954;8.842;2024-03-07T11:06:47;21.80;;;12.07;;
85894;SDS011;76441;49.954;8.842;2024-03-07T11:09:14;23.40;;;13.00;;
85894;SDS011;76441;49.954;8.842;2024-03-07T11:11:49;22.67;;;12.48;;
85894;SDS011;76441;49.954;8.842;2024-03-07T11:14:14;21.05;;;12.30;;
85894;SDS011;76441;49.954;8.842;2024-03-07T11:16:41;19.52;;;11.43;;
85894;SDS011;76441;49.954;8.842;2024-03-07T11:19:24;19.17;;;11.95;;
85894;SDS011;76441;49.954;8.842;2024-03-07T11:21:52;21.13;;;11.95;;
85894;SDS011;76441;49.954;8.842;2024-03-07T11:24:26;19.13;;;10.50;;
85894;SDS011;76441;49.954;8.842;2024-03-07T11:26:54;17.80;;;10.50;;
85894;SDS011;76441;49.954;8.842;2024-03-07T11:32:11;17.30;;;11.27;;
85894;SDS011;76441;49.954;8.842;2024-03-07T11:34:38;18.38;;;12.15;;
85894;SDS011;76441;49.954;8.842;2024-03-07T11:37:10;18.48;;;11.48;;
85894;SDS011;76441;49.954;8.842;2024-03-07T11:39:46;17.90;;;9.93;;
85894;SDS011;76441;49.954;8.842;2024-03-07T11:44:48;18.77;;;10.38;;
85894;SDS011;76441;49.954;8.842;2024-03-07T11:47:16;16.02;;;10.10;;
85894;SDS011;76441;49.954;8.842;2024-03-07T11:49:43;17.75;;;10.25;;
85894;SDS011;76441;49.954;8.842;2024-03-07T11:52:08;17.08;;;8.80;;
85894;SDS011;76441;49.954;8.842;2024-03-07T11:54:39;16.88;;;10.05;;
85894;SDS011;76441;49.954;8.842;2024-03-07T11:57:09;16.88;;;9.45;;
85894;SDS011;76441;49.954;8.842;2024-03-07T11:59:41;18.90;;;10.70;;
85894;SDS011;76441;49.954;8.842;2024-03-07T12:02:13;19.05;;;11.82;;
85894;SDS011;76441;49.954;8.842;2024-03-07T12:04:40;21.92;;;12.82;;
85894;SDS011;76441;49.954;8.842;2024-03-07T12:07:08;15.38;;;9.50;;
85894;SDS011;76441;49.954;8.842;2024-03-07T12:09:38;16.05;;;8.43;;
85894;SDS011;76441;49.954;8.842;2024-03-07T12:12:05;14.68;;;9.23;;
85894;SDS011;76441;49.954;8.842;2024-03-07T12:14:31;17.83;;;9.70;;
85894;SDS011;76441;49.954;8.842;2024-03-07T12:19:24;19.13;;;8.63;;
85894;SDS011;76441;49.954;8.842;2024-03-07T12:21:50;14.15;;;8.27;;
85894;SDS011;76441;49.954;8.842;2024-03-07T12:24:15;16.75;;;9.95;;
85894;SDS011;76441;49.954;8.842;2024-03-07T12:26:41;15.82;;;8.90;;
85894;SDS011;76441;49.954;8.842;2024-03-07T12:29:10;17.88;;;9.82;;
85894;SDS011;76441;49.954;8.842;2024-03-07T12:31:40;16.63;;;9.07;;
85894;SDS011;76441;49.954;8.842;2024-03-07T12:34:07;18.42;;;10.00;;
85894;SDS011;76441;49.954;8.842;2024-03-07T12:36:34;17.13;;;9.68;;
85894;SDS011;76441;49.954;8.842;2024-03-07T12:39:21;15.18;;;9.43;;
85894;SDS011;76441;49.954;8.842;2024-03-07T12:41:50;14.15;;;8.75;;
85894;SDS011;76441;49.954;8.842;2024-03-07T12:44:20;14.82;;;8.82;;
85894;SDS011;76441;49.954;8.842;2024-03-07T12:46:46;15.40;;;9.48;;
85894;SDS011;76441;49.954;8.842;2024-03-07T12:49:13;14.40;;;8.25;;
85894;SDS011;76441;49.954;8.842;2024-03-07T12:51:40;14.73;;;8.55;;
85894;SDS011;76441;49.954;8.842;2024-03-07T12:54:06;17.33;;;10.15;;
85894;SDS011;76441;49.954;8.842;2024-03-07T12:56:34;13.95;;;8.27;;
85894;SDS011;76441;49.954;8.842;2024-03-07T12:59:02;13.15;;;8.18;;
85894;SDS011;76441;49.954;8.842;2024-03-07T13:01:28;12.90;;;8.23;;
85894;SDS011;76441;49.954;8.842;2024-03-07T13:03:55;15.30;;;8.70;;
85894;SDS011;76441;49.954;8.842;2024-03-07T13:06:21;13.02;;;7.57;;
85894;SDS011;76441;49.954;8.842;2024-03-07T13:08:54;13.95;;;8.98;;
85894;SDS011;76441;49.954;8.842;2024-03-07T13:11:21;14.23;;;8.57;;
85894;SDS011;76441;49.954;8.842;2024-03-07T13:13:47;15.57;;;8.90;;
85894;SDS011;76441;49.954;8.842;2024-03-07T13:16:13;14.68;;;8.95;;
85894;SDS011;76441;49.954;8.842;2024-03-07T13:18:38;15.75;;;8.35;;
85894;SDS011;76441;49.954;8.842;2024-03-07T13:21:04;12.65;;;8.70;;
85894;SDS011;76441;49.954;8.842;2024-03-07T13:23:31;18.65;;;8.73;;
85894;SDS011;76441;49.954;8.842;2024-03-07T13:25:58;14.88;;;8.50;;
85894;SDS011;76441;49.954;8.842;2024-03-07T13:28:25;13.70;;;8.43;;
85894;SDS011;76441;49.954;8.842;2024-03-07T13:30:51;14.25;;;8.10;;
85894;SDS011;76441;49.954;8.842;2024-03-07T13:33:20;14.68;;;8.52;;
85894;SDS011;76441;49.954;8.842;2024-03-07T13:35:45;13.07;;;8.60;;
85894;SDS011;76441;49.954;8.842;2024-03-07T13:38:11;14.88;;;7.93;;
85894;SDS011;76441;49.954;8.842;2024-03-07T13:40:39;14.43;;;8.02;;
85894;SDS011;76441;49.954;8.842;2024-03-07T13:43:05;13.07;;;7.95;;
85894;SDS011;76441;49.954;8.842;2024-03-07T13:45:32;14.55;;;9.20;;
85894;SDS011;76441;49.954;8.842;2024-03-07T13:48:06;13.43;;;8.07;;
85894;SDS011;76441;49.954;8.842;2024-03-07T13:50:33;14.00;;;8.15;;
85894;SDS011;76441;49.954;8.842;2024-03-07T13:52:59;14.02;;;8.60;;
85894;SDS011;76441;49.954;8.842;2024-03-07T13:58:34;13.60;;;8.35;;
85894;SDS011;76441;49.954;8.842;2024-03-07T14:09:43;14.15;;;7.88;;
85894;SDS011;76441;49.954;8.842;2024-03-07T14:12:32;13.43;;;7.18;;
85894;SDS011;76441;49.954;8.842;2024-03-07T14:29:50;12.10;;;7.47;;
85894;SDS011;76441;49.954;8.842;2024-03-07T14:32:38;15.27;;;8.27;;
85894;SDS011;76441;49.954;8.842;2024-03-07T14:35:09;13.25;;;7.53;;
85894;SDS011;76441;49.954;8.842;2024-03-07T14:40:39;13.23;;;7.80;;
85894;SDS011;76441;49.954;8.842;2024-03-07T14:43:05;17.05;;;8.00;;
85894;SDS011;76441;49.954;8.842;2024-03-07T14:45:39;12.35;;;6.90;;
85894;SDS011;76441;49.954;8.842;2024-03-07T14:48:06;13.25;;;8.15;;
85894;SDS011;76441;49.954;8.842;2024-03-07T14:50:35;13.45;;;8.45;;
85894;SDS011;76441;49.954;8.842;2024-03-07T14:53:03;13.52;;;8.00;;
85894;SDS011;76441;49.954;8.842;2024-03-07T14:55:29;15.68;;;8.10;;
85894;SDS011;76441;49.954;8.842;2024-03-07T14:57:55;16.05;;;8.02;;
85894;SDS011;76441;49.954;8.842;2024-03-07T15:00:20;13.77;;;7.85;;
85894;SDS011;76441;49.954;8.842;2024-03-07T15:02:51;16.63;;;9.40;;
85894;SDS011;76441;49.954;8.842;2024-03-07T15:05:24;14.77;;;7.70;;
85894;SDS011;76441;49.954;8.842;2024-03-07T15:07:53;14.68;;;8.52;;
85894;SDS011;76441;49.954;8.842;2024-03-07T15:10:20;11.75;;;7.75;;
85894;SDS011;76441;49.954;8.842;2024-03-07T15:12:49;14.88;;;8.82;;
85894;SDS011;76441;49.954;8.842;2024-03-07T15:15:15;13.25;;;7.90;;